createdAt,value
2019-06-01T00:04:52.608Z,15.31
2019-06-01T00:10:14.282Z,15.43
2019-06-01T00:15:36.582Z,15.44
2019-06-01T00:20:58.191Z,15.25
2019-06-01T00:26:20.139Z,15.14
2019-06-01T00:31:42.962Z,15.16
2019-06-01T00:37:04.836Z,15.18
2019-06-01T00:42:26.301Z,15.07
2019-06-01T00:47:48.910Z,14.98
2019-06-01T00:53:10.794Z,14.98
2019-06-01T00:58:32.338Z,15.06
2019-06-01T01:03:54.442Z,15.11
2019-06-01T01:09:16.123Z,15.20
2019-06-01T01:14:38.084Z,15.34
2019-06-01T01:19:59.616Z,15.32
2019-06-01T01:25:21.114Z,15.35
2019-06-01T01:30:59.977Z,15.41
2019-06-01T01:36:06.608Z,15.33
2019-06-01T01:41:28.618Z,15.35
2019-06-01T01:46:50.707Z,15.34
2019-06-01T01:52:12.614Z,15.31
2019-06-01T01:57:34.812Z,15.28
2019-06-01T02:02:56.358Z,15.20
2019-06-01T02:08:18.419Z,15.19
2019-06-01T02:13:40.180Z,15.21
2019-06-01T02:19:02.447Z,15.31
2019-06-01T02:24:24.052Z,15.30
2019-06-01T02:29:45.884Z,15.38
2019-06-01T02:35:08.043Z,15.39
2019-06-01T02:40:30.197Z,15.45
2019-06-01T02:45:52.248Z,15.45
2019-06-01T02:51:13.881Z,15.41
2019-06-01T02:56:35.668Z,15.44
2019-06-01T03:02:04.443Z,15.42
2019-06-01T03:07:22.696Z,15.38
2019-06-01T03:12:45.452Z,15.40
2019-06-01T03:18:09.390Z,15.51
2019-06-01T03:23:32.886Z,15.64
2019-06-01T03:28:56.691Z,15.65
2019-06-01T03:34:18.816Z,15.69
2019-06-01T03:39:40.856Z,15.72
2019-06-01T03:45:03.486Z,15.80
2019-06-01T03:50:25.524Z,15.92
2019-06-01T03:55:47.253Z,16.00
2019-06-01T04:01:09.167Z,16.02
2019-06-01T04:06:30.977Z,16.06
2019-06-01T04:11:52.311Z,16.16
2019-06-01T04:17:14.840Z,16.19
2019-06-01T04:22:36.776Z,16.22
2019-06-01T04:27:58.096Z,16.27
2019-06-01T04:33:19.636Z,16.36
2019-06-01T04:38:41.559Z,16.49
2019-06-01T04:44:03.814Z,16.54
2019-06-01T04:49:25.689Z,16.70
2019-06-01T04:54:47.219Z,16.79
2019-06-01T05:00:21.121Z,16.87
2019-06-01T05:05:32.273Z,17.15
2019-06-01T05:10:53.909Z,17.24
2019-06-01T05:16:16.600Z,17.40
2019-06-01T05:21:38.324Z,17.57
2019-06-01T05:26:59.491Z,17.60
2019-06-01T05:32:21.483Z,17.63
2019-06-01T05:37:43.103Z,17.64
2019-06-01T05:43:04.883Z,17.95
2019-06-01T05:48:30.389Z,18.23
2019-06-01T05:53:50.524Z,18.59
2019-06-01T05:59:12.061Z,18.93
2019-06-01T06:04:33.708Z,19.44
2019-06-01T06:09:55.615Z,19.81
2019-06-01T06:15:17.580Z,19.81
2019-06-01T06:20:39.200Z,19.94
2019-06-01T06:26:00.843Z,19.80
2019-06-01T06:31:23.188Z,19.77
2019-06-01T06:36:44.983Z,19.66
2019-06-01T06:42:06.826Z,19.73
2019-06-01T06:47:28.274Z,20.16
2019-06-01T06:52:50.051Z,20.50
2019-06-01T06:58:11.550Z,20.66
2019-06-01T07:03:33.356Z,20.56
2019-06-01T07:08:55.111Z,20.91
2019-06-01T07:14:16.914Z,21.39
2019-06-01T07:19:38.855Z,21.66
2019-06-01T07:25:01.604Z,22.05
2019-06-01T07:30:24.176Z,22.01
2019-06-01T07:35:46.177Z,21.66
2019-06-01T07:41:08.057Z,21.35
2019-06-01T07:46:29.643Z,20.83
2019-06-01T07:51:51.581Z,20.56
2019-06-01T07:57:13.484Z,20.58
2019-06-01T08:02:35.306Z,21.06
2019-06-01T08:07:57.422Z,21.86
2019-06-01T08:13:19.367Z,22.80
2019-06-01T08:18:41.765Z,23.00
2019-06-01T08:24:03.576Z,23.76
2019-06-01T08:29:26.635Z,23.94
2019-06-01T08:34:48.754Z,23.97
2019-06-01T08:40:10.383Z,24.20
2019-06-01T08:45:36.612Z,24.57
2019-06-01T08:50:55.536Z,24.99
2019-06-01T08:56:21.591Z,24.86
2019-06-01T09:01:41.329Z,24.97
2019-06-01T09:07:03.042Z,25.18
2019-06-01T09:12:25.130Z,25.46
2019-06-01T09:17:47.158Z,25.71
2019-06-01T09:23:08.602Z,25.50
2019-06-01T09:28:30.213Z,25.56
2019-06-01T09:33:51.880Z,25.55
2019-06-01T09:39:13.726Z,25.79
2019-06-01T09:44:35.539Z,25.48
2019-06-01T09:49:57.731Z,24.57
2019-06-01T09:55:19.473Z,24.44
2019-06-01T10:00:43.596Z,24.56
2019-06-01T10:06:04.763Z,24.63
2019-06-01T10:11:26.464Z,24.62
2019-06-01T10:16:48.218Z,24.39
2019-06-01T10:22:10.104Z,24.52
2019-06-01T10:27:32.455Z,24.77
2019-06-01T10:32:54.202Z,24.39
2019-06-01T10:38:15.985Z,24.52
2019-06-01T10:43:37.815Z,24.53
2019-06-01T10:48:59.805Z,24.73
2019-06-01T10:54:21.850Z,24.91
2019-06-01T10:59:43.586Z,25.00
2019-06-01T11:05:05.923Z,25.09
2019-06-01T11:10:27.479Z,25.21
2019-06-01T11:15:49.221Z,25.25
2019-06-01T11:21:10.872Z,25.45
2019-06-01T11:26:33.333Z,25.41
2019-06-01T11:31:55.236Z,25.74
2019-06-01T11:37:16.825Z,25.79
2019-06-01T11:42:39.095Z,25.86
2019-06-01T11:48:01.125Z,25.82
2019-06-01T11:53:22.793Z,25.80
2019-06-01T11:58:45.496Z,25.45
2019-06-01T12:04:07.701Z,25.12
2019-06-01T12:09:29.671Z,25.61
2019-06-01T12:14:51.641Z,26.06
2019-06-01T12:20:13.466Z,26.45
2019-06-01T12:25:34.863Z,26.57
2019-06-01T12:30:59.072Z,26.86
2019-06-01T12:36:21.463Z,26.46
2019-06-01T12:41:43.544Z,26.84
2019-06-01T12:47:05.549Z,28.37
2019-06-01T12:52:27.085Z,27.79
2019-06-01T12:57:49.365Z,28.30
2019-06-01T13:03:11.383Z,28.97
2019-06-01T13:08:32.933Z,29.53
2019-06-01T13:13:54.566Z,30.99
2019-06-01T13:19:17.521Z,31.30
2019-06-01T13:24:39.557Z,31.06
2019-06-01T13:30:01.149Z,31.06
2019-06-01T13:35:22.948Z,31.19
2019-06-01T13:40:44.829Z,31.74
2019-06-01T13:46:06.869Z,31.39
2019-06-01T13:51:28.785Z,29.38
2019-06-01T13:56:50.968Z,29.67
2019-06-01T14:02:12.573Z,31.20
2019-06-01T14:07:34.114Z,32.09
2019-06-01T14:12:55.606Z,31.78
2019-06-01T14:18:17.301Z,32.07
2019-06-01T14:23:38.860Z,31.54
2019-06-01T14:29:00.883Z,31.09
2019-06-01T14:34:22.275Z,31.25
2019-06-01T14:39:44.222Z,31.10
2019-06-01T14:45:07.583Z,31.10
2019-06-01T14:50:29.481Z,31.14
2019-06-01T14:55:51.734Z,31.92
2019-06-01T15:01:28.921Z,32.23
2019-06-01T15:06:37.252Z,30.89
2019-06-01T15:11:59.010Z,30.07
2019-06-01T15:17:20.870Z,30.58
2019-06-01T15:22:42.462Z,30.91
2019-06-01T15:28:04.356Z,30.70
2019-06-01T15:33:26.092Z,29.38
2019-06-01T15:38:48.026Z,28.95
2019-06-01T15:44:09.473Z,28.78
2019-06-01T15:49:31.359Z,28.95
2019-06-01T15:54:54.256Z,29.11
2019-06-01T16:00:16.614Z,29.02
2019-06-01T16:05:38.464Z,29.10
2019-06-01T16:11:04.568Z,28.55
2019-06-01T16:16:24.062Z,28.24
2019-06-01T16:21:45.898Z,26.85
2019-06-01T16:27:07.597Z,26.18
2019-06-01T16:32:29.089Z,25.47
2019-06-01T16:37:51.087Z,24.87
2019-06-01T16:43:12.770Z,24.17
2019-06-01T16:48:34.158Z,24.07
2019-06-01T16:53:56.393Z,23.92
2019-06-01T16:59:18.384Z,23.86
2019-06-01T17:04:40.024Z,23.60
2019-06-01T17:10:19.284Z,23.33
2019-06-01T17:15:25.444Z,23.10
2019-06-01T17:20:48.884Z,23.02
2019-06-01T17:26:10.923Z,22.87
2019-06-01T17:31:32.707Z,22.61
2019-06-01T17:36:54.324Z,22.34
2019-06-01T17:42:15.876Z,22.10
2019-06-01T17:47:40.979Z,22.03
2019-06-01T17:53:02.528Z,22.11
2019-06-01T17:58:24.646Z,22.05
2019-06-01T18:03:46.299Z,21.99
2019-06-01T18:09:08.714Z,21.75
2019-06-01T18:14:30.147Z,21.63
2019-06-01T18:19:51.845Z,21.44
2019-06-01T18:25:19.041Z,21.08
2019-06-01T18:30:40.849Z,20.82
2019-06-01T18:36:03.445Z,20.61
2019-06-01T18:41:24.945Z,20.54
2019-06-01T18:46:46.550Z,20.54
2019-06-01T18:52:08.656Z,20.42
2019-06-01T18:57:31.171Z,20.39
2019-06-01T19:02:52.853Z,20.38
2019-06-01T19:08:15.920Z,20.41
2019-06-01T19:13:37.787Z,20.30
2019-06-01T19:18:59.638Z,20.22
2019-06-01T19:24:21.477Z,20.13
2019-06-01T19:29:43.640Z,20.11
2019-06-01T19:35:07.402Z,19.84
2019-06-01T19:40:33.640Z,19.89
2019-06-01T19:45:55.330Z,19.92
2019-06-01T19:51:18.680Z,19.98
2019-06-01T19:56:40.529Z,20.03
2019-06-01T20:02:02.378Z,20.09
2019-06-01T20:07:24.771Z,20.20
2019-06-01T20:12:46.774Z,20.38
2019-06-01T20:18:08.309Z,20.35
2019-06-01T20:23:29.913Z,20.32
2019-06-01T20:28:51.905Z,20.19
2019-06-01T20:34:14.308Z,20.22
2019-06-01T20:39:35.848Z,20.21
2019-06-01T20:44:57.595Z,19.92
2019-06-01T20:50:20.838Z,19.82
2019-06-01T20:55:42.673Z,19.39
2019-06-01T21:01:04.636Z,19.35
2019-06-01T21:06:26.481Z,19.41
2019-06-01T21:11:48.597Z,19.43
2019-06-01T21:17:10.149Z,19.49
2019-06-01T21:22:31.943Z,19.47
2019-06-01T21:27:53.772Z,19.35
2019-06-01T21:33:15.518Z,19.24
2019-06-01T21:38:38.577Z,19.25
2019-06-01T21:43:59.981Z,19.13
2019-06-01T21:49:22.180Z,19.04
2019-06-01T21:54:43.952Z,18.97
2019-06-01T22:00:07.934Z,18.86
2019-06-01T22:05:29.383Z,18.79
2019-06-01T22:10:51.223Z,18.80
2019-06-01T22:16:13.175Z,18.86
2019-06-01T22:21:34.618Z,18.79
2019-06-01T22:26:56.376Z,18.83
2019-06-01T22:32:22.455Z,18.73
2019-06-01T22:37:41.986Z,18.78
2019-06-01T22:43:03.604Z,18.60
2019-06-01T22:48:25.239Z,18.45
2019-06-01T22:53:47.090Z,18.49
2019-06-01T22:59:08.655Z,18.51
2019-06-01T23:04:31.380Z,18.55
2019-06-01T23:09:53.288Z,18.54
2019-06-01T23:15:14.998Z,18.56
2019-06-01T23:20:36.792Z,18.55
2019-06-01T23:25:58.328Z,18.46
2019-06-01T23:31:19.597Z,18.59
2019-06-01T23:36:41.446Z,18.64
2019-06-01T23:42:03.122Z,18.66
2019-06-01T23:47:25.685Z,18.66
2019-06-01T23:52:47.472Z,18.69
2019-06-01T23:58:09.096Z,18.72
